sensor_id;sensor_type;location;lat;lon;timestamp;P1;durP1;ratioP1;P2;durP2;ratioP2
77085;SDS011;66014;53.134;18.006;2023-04-03T00:01:19;5.00;;;1.30;;
77085;SDS011;66014;53.134;18.006;2023-04-03T00:03:49;5.00;;;1.30;;
77085;SDS011;66014;53.134;18.006;2023-04-03T00:06:21;6.60;;;1.20;;
77085;SDS011;66014;53.134;18.006;2023-04-03T00:09:02;5.30;;;1.40;;
77085;SDS011;66014;53.134;18.006;2023-04-03T00:11:29;4.00;;;1.70;;
77085;SDS011;66014;53.134;18.006;2023-04-03T00:14:09;5.50;;;1.50;;
77085;SDS011;66014;53.134;18.006;2023-04-03T00:16:39;4.80;;;1.20;;
77085;SDS011;66014;53.134;18.006;2023-04-03T00:19:24;10.20;;;1.40;;
77085;SDS011;66014;53.134;18.006;2023-04-03T00:22:08;2.80;;;1.00;;
77085;SDS011;66014;53.134;18.006;2023-04-03T00:24:37;6.40;;;1.40;;
77085;SDS011;66014;53.134;18.006;2023-04-03T00:27:05;3.80;;;1.70;;
77085;SDS011;66014;53.134;18.006;2023-04-03T00:29:31;5.20;;;1.40;;
77085;SDS011;66014;53.134;18.006;2023-04-03T00:31:58;6.50;;;1.60;;
77085;SDS011;66014;53.134;18.006;2023-04-03T00:34:25;6.90;;;2.20;;
77085;SDS011;66014;53.134;18.006;2023-04-03T00:36:51;4.10;;;1.40;;
77085;SDS011;66014;53.134;18.006;2023-04-03T00:39:18;6.10;;;1.50;;
77085;SDS011;66014;53.134;18.006;2023-04-03T00:41:45;3.90;;;1.30;;
77085;SDS011;66014;53.134;18.006;2023-04-03T00:44:19;5.70;;;1.30;;
77085;SDS011;66014;53.134;18.006;2023-04-03T00:46:46;8.70;;;1.50;;
77085;SDS011;66014;53.134;18.006;2023-04-03T00:49:13;4.30;;;1.30;;
77085;SDS011;66014;53.134;18.006;2023-04-03T00:51:44;5.00;;;1.30;;
77085;SDS011;66014;53.134;18.006;2023-04-03T00:54:11;5.70;;;1.50;;
77085;SDS011;66014;53.134;18.006;2023-04-03T00:56:38;5.10;;;2.00;;
77085;SDS011;66014;53.134;18.006;2023-04-03T00:59:10;6.60;;;1.70;;
77085;SDS011;66014;53.134;18.006;2023-04-03T01:01:49;4.00;;;2.00;;
77085;SDS011;66014;53.134;18.006;2023-04-03T01:04:32;5.40;;;2.50;;
77085;SDS011;66014;53.134;18.006;2023-04-03T01:09:33;3.50;;;1.50;;
77085;SDS011;66014;53.134;18.006;2023-04-03T01:12:20;5.50;;;1.40;;
77085;SDS011;66014;53.134;18.006;2023-04-03T01:14:49;4.80;;;1.50;;
77085;SDS011;66014;53.134;18.006;2023-04-03T01:41:37;5.80;;;1.10;;
77085;SDS011;66014;53.134;18.006;2023-04-03T01:44:24;4.20;;;1.30;;
77085;SDS011;66014;53.134;18.006;2023-04-03T01:46:51;3.50;;;1.10;;
77085;SDS011;66014;53.134;18.006;2023-04-03T01:49:17;5.20;;;1.90;;
77085;SDS011;66014;53.134;18.006;2023-04-03T01:51:44;6.10;;;1.20;;
77085;SDS011;66014;53.134;18.006;2023-04-03T01:54:23;5.90;;;1.60;;
77085;SDS011;66014;53.134;18.006;2023-04-03T01:56:50;4.90;;;1.30;;
77085;SDS011;66014;53.134;18.006;2023-04-03T02:20:15;3.80;;;1.10;;
77085;SDS011;66014;53.134;18.006;2023-04-03T02:22:42;6.70;;;1.40;;
77085;SDS011;66014;53.134;18.006;2023-04-03T02:25:11;7.60;;;1.30;;
77085;SDS011;66014;53.134;18.006;2023-04-03T02:27:41;5.10;;;1.20;;
77085;SDS011;66014;53.134;18.006;2023-04-03T02:30:08;6.70;;;1.30;;
77085;SDS011;66014;53.134;18.006;2023-04-03T02:32:36;6.90;;;1.50;;
77085;SDS011;66014;53.134;18.006;2023-04-03T02:37:20;4.70;;;1.50;;
77085;SDS011;66014;53.134;18.006;2023-04-03T02:39:46;5.10;;;1.70;;
77085;SDS011;66014;53.134;18.006;2023-04-03T02:42:13;5.90;;;1.40;;
77085;SDS011;66014;53.134;18.006;2023-04-03T02:44:39;3.60;;;1.00;;
77085;SDS011;66014;53.134;18.006;2023-04-03T02:50:56;3.70;;;1.30;;
77085;SDS011;66014;53.134;18.006;2023-04-03T02:53:32;6.70;;;1.50;;
77085;SDS011;66014;53.134;18.006;2023-04-03T03:09:38;4.40;;;1.40;;
77085;SDS011;66014;53.134;18.006;2023-04-03T03:12:05;7.90;;;1.90;;
77085;SDS011;66014;53.134;18.006;2023-04-03T03:14:30;6.50;;;1.90;;
77085;SDS011;66014;53.134;18.006;2023-04-03T03:16:57;6.80;;;1.60;;
77085;SDS011;66014;53.134;18.006;2023-04-03T03:19:23;3.80;;;2.10;;
77085;SDS011;66014;53.134;18.006;2023-04-03T03:21:49;8.00;;;1.90;;
77085;SDS011;66014;53.134;18.006;2023-04-03T03:24:15;5.50;;;2.00;;
77085;SDS011;66014;53.134;18.006;2023-04-03T03:26:41;7.20;;;1.60;;
77085;SDS011;66014;53.134;18.006;2023-04-03T03:29:10;12.30;;;5.20;;
77085;SDS011;66014;53.134;18.006;2023-04-03T03:31:37;9.50;;;1.80;;
77085;SDS011;66014;53.134;18.006;2023-04-03T03:34:03;3.00;;;1.40;;
77085;SDS011;66014;53.134;18.006;2023-04-03T03:36:29;5.30;;;2.70;;
77085;SDS011;66014;53.134;18.006;2023-04-03T03:38:55;10.40;;;3.20;;
77085;SDS011;66014;53.134;18.006;2023-04-03T03:41:21;6.40;;;2.30;;
77085;SDS011;66014;53.134;18.006;2023-04-03T03:43:47;6.90;;;2.20;;
77085;SDS011;66014;53.134;18.006;2023-04-03T03:46:13;5.60;;;2.10;;
77085;SDS011;66014;53.134;18.006;2023-04-03T03:48:39;6.00;;;3.00;;
77085;SDS011;66014;53.134;18.006;2023-04-03T03:51:05;9.40;;;5.20;;
77085;SDS011;66014;53.134;18.006;2023-04-03T03:53:32;10.60;;;4.30;;
77085;SDS011;66014;53.134;18.006;2023-04-03T03:55:58;11.80;;;3.70;;
77085;SDS011;66014;53.134;18.006;2023-04-03T03:58:24;7.60;;;2.60;;
77085;SDS011;66014;53.134;18.006;2023-04-03T04:00:50;20.30;;;7.50;;
77085;SDS011;66014;53.134;18.006;2023-04-03T04:03:16;13.30;;;5.30;;
77085;SDS011;66014;53.134;18.006;2023-04-03T04:05:42;21.80;;;6.30;;
77085;SDS011;66014;53.134;18.006;2023-04-03T04:08:12;13.30;;;4.90;;
77085;SDS011;66014;53.134;18.006;2023-04-03T04:10:38;11.60;;;3.50;;
77085;SDS011;66014;53.134;18.006;2023-04-03T04:13:05;10.00;;;2.40;;
77085;SDS011;66014;53.134;18.006;2023-04-03T04:15:31;7.20;;;2.60;;
77085;SDS011;66014;53.134;18.006;2023-04-03T04:18:00;8.40;;;2.10;;
77085;SDS011;66014;53.134;18.006;2023-04-03T04:20:26;10.70;;;3.70;;
77085;SDS011;66014;53.134;18.006;2023-04-03T04:22:54;11.30;;;3.10;;
77085;SDS011;66014;53.134;18.006;2023-04-03T04:28:29;7.20;;;2.60;;
77085;SDS011;66014;53.134;18.006;2023-04-03T04:30:55;7.50;;;2.90;;
77085;SDS011;66014;53.134;18.006;2023-04-03T04:33:21;7.60;;;3.40;;
77085;SDS011;66014;53.134;18.006;2023-04-03T04:35:47;12.90;;;3.20;;
77085;SDS011;66014;53.134;18.006;2023-04-03T04:38:14;9.00;;;3.10;;
77085;SDS011;66014;53.134;18.006;2023-04-03T04:40:40;8.70;;;3.00;;
77085;SDS011;66014;53.134;18.006;2023-04-03T04:43:07;14.30;;;5.70;;
77085;SDS011;66014;53.134;18.006;2023-04-03T04:45:33;13.10;;;3.90;;
77085;SDS011;66014;53.134;18.006;2023-04-03T04:48:03;16.80;;;5.40;;
77085;SDS011;66014;53.134;18.006;2023-04-03T04:50:32;15.10;;;4.40;;
77085;SDS011;66014;53.134;18.006;2023-04-03T04:53:00;11.60;;;4.20;;
77085;SDS011;66014;53.134;18.006;2023-04-03T04:55:26;9.00;;;2.80;;
77085;SDS011;66014;53.134;18.006;2023-04-03T04:57:52;8.00;;;2.30;;
77085;SDS011;66014;53.134;18.006;2023-04-03T05:00:21;9.40;;;2.60;;
77085;SDS011;66014;53.134;18.006;2023-04-03T05:03:12;4.70;;;1.90;;
77085;SDS011;66014;53.134;18.006;2023-04-03T05:05:38;7.30;;;3.30;;
77085;SDS011;66014;53.134;18.006;2023-04-03T05:08:04;11.80;;;2.80;;
77085;SDS011;66014;53.134;18.006;2023-04-03T05:10:31;5.60;;;2.60;;
77085;SDS011;66014;53.134;18.006;2023-04-03T05:12:57;8.00;;;1.50;;
77085;SDS011;66014;53.134;18.006;2023-04-03T05:15:23;5.80;;;2.10;;
77085;SDS011;66014;53.134;18.006;2023-04-03T05:17:49;5.30;;;1.70;;
77085;SDS011;66014;53.134;18.006;2023-04-03T05:20:16;8.30;;;2.00;;
77085;SDS011;66014;53.134;18.006;2023-04-03T05:22:42;6.20;;;1.70;;
77085;SDS011;66014;53.134;18.006;2023-04-03T05:25:08;8.30;;;2.60;;
77085;SDS011;66014;53.134;18.006;2023-04-03T05:27:34;6.80;;;1.90;;
77085;SDS011;66014;53.134;18.006;2023-04-03T05:30:03;6.80;;;1.80;;
77085;SDS011;66014;53.134;18.006;2023-04-03T05:32:30;5.90;;;1.60;;
77085;SDS011;66014;53.134;18.006;2023-04-03T05:34:55;4.80;;;1.60;;
77085;SDS011;66014;53.134;18.006;2023-04-03T05:37:21;7.10;;;1.70;;
77085;SDS011;66014;53.134;18.006;2023-04-03T05:39:47;4.90;;;1.50;;
77085;SDS011;66014;53.134;18.006;2023-04-03T05:42:13;6.60;;;1.50;;
77085;SDS011;66014;53.134;18.006;2023-04-03T05:44:41;5.80;;;1.90;;
77085;SDS011;66014;53.134;18.006;2023-04-03T05:47:08;5.60;;;2.60;;
77085;SDS011;66014;53.134;18.006;2023-04-03T05:49:36;6.40;;;1.30;;
77085;SDS011;66014;53.134;18.006;2023-04-03T05:52:26;3.70;;;1.50;;
77085;SDS011;66014;53.134;18.006;2023-04-03T05:54:54;8.00;;;1.70;;
77085;SDS011;66014;53.134;18.006;2023-04-03T05:57:20;6.10;;;1.50;;
77085;SDS011;66014;53.134;18.006;2023-04-03T05:59:47;5.50;;;2.20;;
77085;SDS011;66014;53.134;18.006;2023-04-03T06:02:17;6.60;;;2.10;;
77085;SDS011;66014;53.134;18.006;2023-04-03T06:04:46;6.50;;;2.20;;
77085;SDS011;66014;53.134;18.006;2023-04-03T06:07:16;8.10;;;2.90;;
77085;SDS011;66014;53.134;18.006;2023-04-03T06:09:47;5.50;;;1.70;;
77085;SDS011;66014;53.134;18.006;2023-04-03T06:12:13;8.10;;;2.30;;
77085;SDS011;66014;53.134;18.006;2023-04-03T06:14:40;9.50;;;3.30;;
77085;SDS011;66014;53.134;18.006;2023-04-03T06:17:06;6.60;;;2.30;;
77085;SDS011;66014;53.134;18.006;2023-04-03T06:19:34;9.90;;;2.40;;
77085;SDS011;66014;53.134;18.006;2023-04-03T06:22:01;4.80;;;1.90;;
77085;SDS011;66014;53.134;18.006;2023-04-03T06:24:28;11.70;;;2.80;;
77085;SDS011;66014;53.134;18.006;2023-04-03T06:26:54;6.30;;;1.90;;
77085;SDS011;66014;53.134;18.006;2023-04-03T06:29:23;4.70;;;1.30;;
77085;SDS011;66014;53.134;18.006;2023-04-03T06:35:14;6.90;;;2.20;;
77085;SDS011;66014;53.134;18.006;2023-04-03T06:42:32;7.30;;;2.00;;
77085;SDS011;66014;53.134;18.006;2023-04-03T06:44:58;7.40;;;2.10;;
77085;SDS011;66014;53.134;18.006;2023-04-03T06:47:23;7.60;;;3.10;;
77085;SDS011;66014;53.134;18.006;2023-04-03T06:50:11;6.30;;;2.30;;
77085;SDS011;66014;53.134;18.006;2023-04-03T06:52:41;5.10;;;1.90;;
77085;SDS011;66014;53.134;18.006;2023-04-03T06:55:07;8.50;;;2.20;;
77085;SDS011;66014;53.134;18.006;2023-04-03T06:57:41;4.90;;;2.20;;
77085;SDS011;66014;53.134;18.006;2023-04-03T07:00:53;5.30;;;1.70;;
77085;SDS011;66014;53.134;18.006;2023-04-03T07:11:05;7.40;;;2.00;;
77085;SDS011;66014;53.134;18.006;2023-04-03T07:17:00;9.40;;;2.60;;
77085;SDS011;66014;53.134;18.006;2023-04-03T07:19:25;6.10;;;2.30;;
77085;SDS011;66014;53.134;18.006;2023-04-03T07:21:53;10.20;;;2.50;;
77085;SDS011;66014;53.134;18.006;2023-04-03T07:24:20;5.50;;;2.40;;
77085;SDS011;66014;53.134;18.006;2023-04-03T07:26:52;5.80;;;2.20;;
77085;SDS011;66014;53.134;18.006;2023-04-03T07:29:18;6.60;;;2.30;;
77085;SDS011;66014;53.134;18.006;2023-04-03T07:31:47;7.60;;;1.60;;
77085;SDS011;66014;53.134;18.006;2023-04-03T07:34:13;5.50;;;1.70;;
77085;SDS011;66014;53.134;18.006;2023-04-03T07:36:39;4.70;;;1.60;;
77085;SDS011;66014;53.134;18.006;2023-04-03T07:39:06;5.70;;;2.30;;
77085;SDS011;66014;53.134;18.006;2023-04-03T07:41:33;5.40;;;2.00;;
77085;SDS011;66014;53.134;18.006;2023-04-03T07:43:59;6.10;;;2.50;;
77085;SDS011;66014;53.134;18.006;2023-04-03T07:46:26;5.50;;;2.50;;
77085;SDS011;66014;53.134;18.006;2023-04-03T07:48:52;7.30;;;3.00;;
77085;SDS011;66014;53.134;18.006;2023-04-03T07:51:18;6.40;;;2.00;;
77085;SDS011;66014;53.134;18.006;2023-04-03T07:53:45;5.40;;;2.10;;
77085;SDS011;66014;53.134;18.006;2023-04-03T07:56:12;5.30;;;2.00;;
77085;SDS011;66014;53.134;18.006;2023-04-03T07:58:38;6.80;;;1.90;;
77085;SDS011;66014;53.134;18.006;2023-04-03T08:01:04;3.90;;;1.60;;
77085;SDS011;66014;53.134;18.006;2023-04-03T08:03:30;5.20;;;1.80;;
77085;SDS011;66014;53.134;18.006;2023-04-03T08:06:00;4.20;;;1.30;;
77085;SDS011;66014;53.134;18.006;2023-04-03T08:08:30;5.70;;;2.00;;
77085;SDS011;66014;53.134;18.006;2023-04-03T08:10:57;11.30;;;2.80;;
77085;SDS011;66014;53.134;18.006;2023-04-03T08:13:24;7.70;;;2.50;;
77085;SDS011;66014;53.134;18.006;2023-04-03T08:15:50;5.80;;;1.80;;
77085;SDS011;66014;53.134;18.006;2023-04-03T08:18:17;5.20;;;1.90;;
77085;SDS011;66014;53.134;18.006;2023-04-03T08:20:47;4.60;;;1.60;;
77085;SDS011;66014;53.134;18.006;2023-04-03T08:23:13;4.30;;;1.80;;
77085;SDS011;66014;53.134;18.006;2023-04-03T08:25:41;3.90;;;1.40;;
77085;SDS011;66014;53.134;18.006;2023-04-03T08:28:09;4.50;;;1.20;;
77085;SDS011;66014;53.134;18.006;2023-04-03T08:30:38;3.70;;;1.70;;
77085;SDS011;66014;53.134;18.006;2023-04-03T08:33:05;5.60;;;2.00;;
77085;SDS011;66014;53.134;18.006;2023-04-03T08:35:31;6.70;;;3.60;;
77085;SDS011;66014;53.134;18.006;2023-04-03T08:37:57;3.70;;;1.40;;
77085;SDS011;66014;53.134;18.006;2023-04-03T08:40:23;8.00;;;1.60;;
77085;SDS011;66014;53.134;18.006;2023-04-03T08:42:56;6.80;;;1.70;;
77085;SDS011;66014;53.134;18.006;2023-04-03T08:45:42;4.60;;;1.30;;
77085;SDS011;66014;53.134;18.006;2023-04-03T09:35:33;4.60;;;2.60;;
77085;SDS011;66014;53.134;18.006;2023-04-03T09:42:05;4.90;;;1.50;;
77085;SDS011;66014;53.134;18.006;2023-04-03T09:44:42;14.30;;;6.30;;
77085;SDS011;66014;53.134;18.006;2023-04-03T09:47:21;8.40;;;3.60;;
77085;SDS011;66014;53.134;18.006;2023-04-03T09:49:50;7.30;;;3.20;;
77085;SDS011;66014;53.134;18.006;2023-04-03T09:52:22;4.40;;;1.60;;
77085;SDS011;66014;53.134;18.006;2023-04-03T09:54:49;6.00;;;1.30;;
77085;SDS011;66014;53.134;18.006;2023-04-03T09:57:15;5.50;;;1.90;;
77085;SDS011;66014;53.134;18.006;2023-04-03T09:59:44;4.40;;;1.80;;
77085;SDS011;66014;53.134;18.006;2023-04-03T10:02:25;7.90;;;2.70;;
77085;SDS011;66014;53.134;18.006;2023-04-03T10:04:54;6.80;;;3.00;;
77085;SDS011;66014;53.134;18.006;2023-04-03T10:10:34;4.60;;;2.50;;
77085;SDS011;66014;53.134;18.006;2023-04-03T10:12:45;3.70;;;1.70;;
77085;SDS011;66014;53.134;18.006;2023-04-03T10:15:12;5.30;;;2.30;;
77085;SDS011;66014;53.134;18.006;2023-04-03T10:29:25;8.70;;;2.00;;
77085;SDS011;66014;53.134;18.006;2023-04-03T10:32:02;3.30;;;1.70;;
77085;SDS011;66014;53.134;18.006;2023-04-03T10:34:46;8.00;;;2.20;;
77085;SDS011;66014;53.134;18.006;2023-04-03T10:37:18;3.80;;;1.70;;
77085;SDS011;66014;53.134;18.006;2023-04-03T10:42:38;7.60;;;3.70;;
77085;SDS011;66014;53.134;18.006;2023-04-03T10:45:29;5.30;;;2.70;;
77085;SDS011;66014;53.134;18.006;2023-04-03T10:48:55;4.70;;;2.70;;
77085;SDS011;66014;53.134;18.006;2023-04-03T10:51:31;3.60;;;1.40;;
77085;SDS011;66014;53.134;18.006;2023-04-03T10:56:56;4.50;;;2.80;;
77085;SDS011;66014;53.134;18.006;2023-04-03T11:02:58;5.60;;;2.50;;
77085;SDS011;66014;53.134;18.006;2023-04-03T12:27:40;10.50;;;4.10;;
77085;SDS011;66014;53.134;18.006;2023-04-03T12:33:33;2.70;;;1.10;;
77085;SDS011;66014;53.134;18.006;2023-04-03T12:36:26;4.50;;;1.50;;
77085;SDS011;66014;53.134;18.006;2023-04-03T12:39:21;5.50;;;2.40;;
77085;SDS011;66014;53.134;18.006;2023-04-03T12:45:23;5.20;;;1.70;;
77085;SDS011;66014;53.134;18.006;2023-04-03T12:47:51;3.60;;;1.20;;
77085;SDS011;66014;53.134;18.006;2023-04-03T12:50:22;2.60;;;1.00;;
77085;SDS011;66014;53.134;18.006;2023-04-03T12:53:00;7.80;;;2.80;;
77085;SDS011;66014;53.134;18.006;2023-04-03T12:55:30;4.50;;;1.60;;
77085;SDS011;66014;53.134;18.006;2023-04-03T12:57:57;4.50;;;2.00;;
77085;SDS011;66014;53.134;18.006;2023-04-03T13:00:30;3.60;;;1.70;;
77085;SDS011;66014;53.134;18.006;2023-04-03T13:03:02;4.70;;;2.40;;
77085;SDS011;66014;53.134;18.006;2023-04-03T13:05:31;4.70;;;2.20;;
77085;SDS011;66014;53.134;18.006;2023-04-03T13:08:03;4.90;;;1.90;;
77085;SDS011;66014;53.134;18.006;2023-04-03T13:10:53;7.00;;;2.70;;
77085;SDS011;66014;53.134;18.006;2023-04-03T13:13:24;11.20;;;4.60;;
77085;SDS011;66014;53.134;18.006;2023-04-03T13:15:57;4.90;;;1.70;;
77085;SDS011;66014;53.134;18.006;2023-04-03T13:18:26;4.50;;;2.40;;
77085;SDS011;66014;53.134;18.006;2023-04-03T13:21:19;5.80;;;2.40;;
77085;SDS011;66014;53.134;18.006;2023-04-03T13:26:15;9.60;;;4.50;;
77085;SDS011;66014;53.134;18.006;2023-04-03T13:28:44;5.40;;;2.80;;
77085;SDS011;66014;53.134;18.006;2023-04-03T13:33:43;6.90;;;3.20;;
77085;SDS011;66014;53.134;18.006;2023-04-03T13:36:20;8.00;;;3.30;;
77085;SDS011;66014;53.134;18.006;2023-04-03T13:38:57;5.00;;;2.30;;
77085;SDS011;66014;53.134;18.006;2023-04-03T13:49:38;12.60;;;5.00;;
77085;SDS011;66014;53.134;18.006;2023-04-03T13:54:55;7.30;;;2.50;;
77085;SDS011;66014;53.134;18.006;2023-04-03T13:57:25;4.40;;;1.40;;
77085;SDS011;66014;53.134;18.006;2023-04-03T13:59:53;6.80;;;2.80;;
77085;SDS011;66014;53.134;18.006;2023-04-03T14:02:22;5.10;;;2.10;;
77085;SDS011;66014;53.134;18.006;2023-04-03T14:04:57;8.10;;;3.50;;
77085;SDS011;66014;53.134;18.006;2023-04-03T14:07:27;3.60;;;1.90;;
77085;SDS011;66014;53.134;18.006;2023-04-03T14:09:55;4.20;;;1.70;;
77085;SDS011;66014;53.134;18.006;2023-04-03T14:12:24;4.00;;;2.20;;
77085;SDS011;66014;53.134;18.006;2023-04-03T14:14:53;5.00;;;2.40;;
77085;SDS011;66014;53.134;18.006;2023-04-03T14:17:23;4.50;;;1.90;;
77085;SDS011;66014;53.134;18.006;2023-04-03T14:19:52;3.10;;;1.80;;
77085;SDS011;66014;53.134;18.006;2023-04-03T14:22:24;3.60;;;2.00;;
77085;SDS011;66014;53.134;18.006;2023-04-03T14:24:54;5.70;;;2.10;;
77085;SDS011;66014;53.134;18.006;2023-04-03T14:27:26;6.40;;;2.90;;
77085;SDS011;66014;53.134;18.006;2023-04-03T14:30:09;7.30;;;2.40;;
77085;SDS011;66014;53.134;18.006;2023-04-03T14:32:41;6.70;;;2.90;;
77085;SDS011;66014;53.134;18.006;2023-04-03T14:35:08;7.80;;;2.70;;
77085;SDS011;66014;53.134;18.006;2023-04-03T14:37:34;7.00;;;4.30;;
77085;SDS011;66014;53.134;18.006;2023-04-03T14:40:01;6.60;;;3.60;;
77085;SDS011;66014;53.134;18.006;2023-04-03T14:42:32;13.00;;;4.00;;
77085;SDS011;66014;53.134;18.006;2023-04-03T14:45:01;8.20;;;3.00;;
77085;SDS011;66014;53.134;18.006;2023-04-03T14:47:31;8.30;;;3.30;;
77085;SDS011;66014;53.134;18.006;2023-04-03T14:50:02;9.70;;;2.90;;
77085;SDS011;66014;53.134;18.006;2023-04-03T14:52:32;6.10;;;2.70;;
77085;SDS011;66014;53.134;18.006;2023-04-03T14:55:02;7.00;;;2.30;;
77085;SDS011;66014;53.134;18.006;2023-04-03T14:57:31;3.90;;;1.70;;
77085;SDS011;66014;53.134;18.006;2023-04-03T14:59:57;3.80;;;1.70;;
77085;SDS011;66014;53.134;18.006;2023-04-03T15:02:25;5.70;;;2.00;;
77085;SDS011;66014;53.134;18.006;2023-04-03T15:04:56;5.50;;;3.00;;
77085;SDS011;66014;53.134;18.006;2023-04-03T15:07:25;5.80;;;2.70;;
77085;SDS011;66014;53.134;18.006;2023-04-03T15:10:15;9.70;;;5.00;;
77085;SDS011;66014;53.134;18.006;2023-04-03T15:12:43;4.80;;;2.60;;
77085;SDS011;66014;53.134;18.006;2023-04-03T15:15:10;15.10;;;8.10;;
77085;SDS011;66014;53.134;18.006;2023-04-03T15:17:53;13.00;;;6.90;;
77085;SDS011;66014;53.134;18.006;2023-04-03T15:20:28;8.40;;;4.50;;
77085;SDS011;66014;53.134;18.006;2023-04-03T15:22:59;7.60;;;3.90;;
77085;SDS011;66014;53.134;18.006;2023-04-03T15:25:32;5.90;;;2.40;;
77085;SDS011;66014;53.134;18.006;2023-04-03T15:27:58;7.50;;;3.10;;
77085;SDS011;66014;53.134;18.006;2023-04-03T15:30:26;5.80;;;2.30;;
77085;SDS011;66014;53.134;18.006;2023-04-03T15:32:52;5.70;;;2.70;;
77085;SDS011;66014;53.134;18.006;2023-04-03T15:35:19;3.20;;;1.50;;
77085;SDS011;66014;53.134;18.006;2023-04-03T15:38:00;4.90;;;2.10;;
77085;SDS011;66014;53.134;18.006;2023-04-03T16:15:02;6.90;;;3.30;;
77085;SDS011;66014;53.134;18.006;2023-04-03T16:17:29;16.00;;;7.50;;
77085;SDS011;66014;53.134;18.006;2023-04-03T16:19:57;6.00;;;2.70;;
77085;SDS011;66014;53.134;18.006;2023-04-03T16:22:26;5.50;;;3.10;;
77085;SDS011;66014;53.134;18.006;2023-04-03T16:24:54;8.80;;;4.50;;
77085;SDS011;66014;53.134;18.006;2023-04-03T16:27:20;5.30;;;2.90;;
77085;SDS011;66014;53.134;18.006;2023-04-03T16:29:55;7.50;;;3.40;;
77085;SDS011;66014;53.134;18.006;2023-04-03T16:32:40;4.30;;;2.00;;
77085;SDS011;66014;53.134;18.006;2023-04-03T16:35:06;7.20;;;3.00;;
77085;SDS011;66014;53.134;18.006;2023-04-03T16:37:34;6.20;;;3.70;;
77085;SDS011;66014;53.134;18.006;2023-04-03T16:40:04;8.10;;;4.30;;
77085;SDS011;66014;53.134;18.006;2023-04-03T16:42:32;4.70;;;2.20;;
77085;SDS011;66014;53.134;18.006;2023-04-03T16:44:58;6.40;;;3.00;;
77085;SDS011;66014;53.134;18.006;2023-04-03T16:47:28;4.90;;;1.40;;
77085;SDS011;66014;53.134;18.006;2023-04-03T16:49:54;3.60;;;1.80;;
77085;SDS011;66014;53.134;18.006;2023-04-03T16:52:20;6.30;;;2.10;;
77085;SDS011;66014;53.134;18.006;2023-04-03T16:54:46;8.80;;;3.60;;
77085;SDS011;66014;53.134;18.006;2023-04-03T16:57:15;5.00;;;2.00;;
77085;SDS011;66014;53.134;18.006;2023-04-03T16:59:41;7.90;;;3.50;;
77085;SDS011;66014;53.134;18.006;2023-04-03T17:02:07;11.40;;;4.90;;
77085;SDS011;66014;53.134;18.006;2023-04-03T17:04:33;5.00;;;2.60;;
77085;SDS011;66014;53.134;18.006;2023-04-03T17:06:59;8.50;;;3.60;;
77085;SDS011;66014;53.134;18.006;2023-04-03T17:09:31;8.20;;;3.00;;
77085;SDS011;66014;53.134;18.006;2023-04-03T17:11:58;12.10;;;4.50;;
77085;SDS011;66014;53.134;18.006;2023-04-03T17:14:24;10.80;;;4.70;;
77085;SDS011;66014;53.134;18.006;2023-04-03T17:16:50;10.60;;;4.00;;
77085;SDS011;66014;53.134;18.006;2023-04-03T17:19:16;9.80;;;4.80;;
77085;SDS011;66014;53.134;18.006;2023-04-03T17:21:42;14.60;;;5.30;;
77085;SDS011;66014;53.134;18.006;2023-04-03T17:24:09;14.80;;;5.70;;
77085;SDS011;66014;53.134;18.006;2023-04-03T17:26:38;10.70;;;4.40;;
77085;SDS011;66014;53.134;18.006;2023-04-03T17:29:06;19.80;;;9.70;;
77085;SDS011;66014;53.134;18.006;2023-04-03T17:31:33;13.40;;;7.10;;
77085;SDS011;66014;53.134;18.006;2023-04-03T17:33:59;23.70;;;10.20;;
77085;SDS011;66014;53.134;18.006;2023-04-03T17:36:28;35.80;;;17.00;;
77085;SDS011;66014;53.134;18.006;2023-04-03T17:38:55;32.60;;;14.70;;
77085;SDS011;66014;53.134;18.006;2023-04-03T17:41:21;16.90;;;7.40;;
77085;SDS011;66014;53.134;18.006;2023-04-03T17:43:49;20.80;;;8.20;;
77085;SDS011;66014;53.134;18.006;2023-04-03T17:46:15;18.80;;;6.80;;
77085;SDS011;66014;53.134;18.006;2023-04-03T17:48:42;17.20;;;7.10;;
77085;SDS011;66014;53.134;18.006;2023-04-03T17:51:10;13.40;;;5.30;;
77085;SDS011;66014;53.134;18.006;2023-04-03T17:53:41;26.00;;;9.20;;
77085;SDS011;66014;53.134;18.006;2023-04-03T17:56:13;25.10;;;8.70;;
77085;SDS011;66014;53.134;18.006;2023-04-03T17:58:44;24.20;;;9.30;;
77085;SDS011;66014;53.134;18.006;2023-04-03T18:01:11;17.50;;;8.40;;
77085;SDS011;66014;53.134;18.006;2023-04-03T18:03:49;22.30;;;8.40;;
77085;SDS011;66014;53.134;18.006;2023-04-03T18:06:18;27.90;;;11.80;;
77085;SDS011;66014;53.134;18.006;2023-04-03T18:09:06;26.20;;;10.90;;
77085;SDS011;66014;53.134;18.006;2023-04-03T18:11:34;24.20;;;10.60;;
77085;SDS011;66014;53.134;18.006;2023-04-03T18:14:01;20.20;;;9.00;;
77085;SDS011;66014;53.134;18.006;2023-04-03T18:16:32;14.70;;;7.30;;
77085;SDS011;66014;53.134;18.006;2023-04-03T18:18:58;11.80;;;5.10;;
77085;SDS011;66014;53.134;18.006;2023-04-03T18:21:25;12.10;;;4.90;;
77085;SDS011;66014;53.134;18.006;2023-04-03T18:23:52;11.50;;;4.60;;
77085;SDS011;66014;53.134;18.006;2023-04-03T18:26:23;25.10;;;10.70;;
77085;SDS011;66014;53.134;18.006;2023-04-03T18:28:54;15.10;;;5.80;;
77085;SDS011;66014;53.134;18.006;2023-04-03T18:31:23;15.80;;;6.20;;
77085;SDS011;66014;53.134;18.006;2023-04-03T18:33:52;15.60;;;7.90;;
77085;SDS011;66014;53.134;18.006;2023-04-03T18:36:19;24.10;;;11.10;;
77085;SDS011;66014;53.134;18.006;2023-04-03T18:38:46;22.00;;;10.70;;
77085;SDS011;66014;53.134;18.006;2023-04-03T18:41:13;30.90;;;13.80;;
77085;SDS011;66014;53.134;18.006;2023-04-03T18:43:39;18.90;;;9.80;;
77085;SDS011;66014;53.134;18.006;2023-04-03T18:46:07;25.80;;;11.30;;
77085;SDS011;66014;53.134;18.006;2023-04-03T18:48:33;19.30;;;8.50;;
77085;SDS011;66014;53.134;18.006;2023-04-03T18:51:00;19.60;;;8.80;;
77085;SDS011;66014;53.134;18.006;2023-04-03T18:53:27;21.30;;;8.50;;
77085;SDS011;66014;53.134;18.006;2023-04-03T18:55:53;13.60;;;7.20;;
77085;SDS011;66014;53.134;18.006;2023-04-03T18:58:19;24.60;;;9.50;;
77085;SDS011;66014;53.134;18.006;2023-04-03T19:00:45;27.70;;;12.30;;
77085;SDS011;66014;53.134;18.006;2023-04-03T19:03:11;25.50;;;10.40;;
77085;SDS011;66014;53.134;18.006;2023-04-03T19:05:38;26.20;;;10.10;;
77085;SDS011;66014;53.134;18.006;2023-04-03T19:08:04;29.10;;;10.10;;
77085;SDS011;66014;53.134;18.006;2023-04-03T19:10:30;40.90;;;15.00;;
77085;SDS011;66014;53.134;18.006;2023-04-03T19:12:56;38.10;;;15.50;;
77085;SDS011;66014;53.134;18.006;2023-04-03T19:15:22;54.00;;;24.20;;
77085;SDS011;66014;53.134;18.006;2023-04-03T19:17:50;25.30;;;14.80;;
77085;SDS011;66014;53.134;18.006;2023-04-03T19:20:18;12.70;;;6.60;;
77085;SDS011;66014;53.134;18.006;2023-04-03T19:22:44;15.90;;;9.40;;
77085;SDS011;66014;53.134;18.006;2023-04-03T19:25:11;13.70;;;6.10;;
77085;SDS011;66014;53.134;18.006;2023-04-03T19:27:38;8.50;;;4.50;;
77085;SDS011;66014;53.134;18.006;2023-04-03T19:30:04;8.70;;;4.80;;
77085;SDS011;66014;53.134;18.006;2023-04-03T19:32:31;7.60;;;3.90;;
77085;SDS011;66014;53.134;18.006;2023-04-03T19:34:58;29.40;;;18.30;;
77085;SDS011;66014;53.134;18.006;2023-04-03T19:37:25;11.20;;;7.60;;
77085;SDS011;66014;53.134;18.006;2023-04-03T19:39:53;8.30;;;6.00;;
77085;SDS011;66014;53.134;18.006;2023-04-03T19:42:20;9.00;;;3.60;;
77085;SDS011;66014;53.134;18.006;2023-04-03T19:44:49;10.80;;;4.70;;
77085;SDS011;66014;53.134;18.006;2023-04-03T19:51:17;14.10;;;8.60;;
77085;SDS011;66014;53.134;18.006;2023-04-03T20:01:57;8.00;;;3.00;;